LESULELL

Guest
Details From LESU - Seo de Urgel
To LELL - Sabadell
Flight Number -
Tags generated
Created
Modified
Stats Distance 59 nm / 109 km
Max Altitude 0 ft / 0 m
Waypoints 3
Social Downloads 2
Likes 0
Share VATSIM

Download

Looking for another format? Having issues loading an existing format? Contact us
Advertisement - Login to hide

Notes

Basic altitude profile: - Ascent Rate: 2500ft/min - Ascent Speed: 250kts - Cruise Altitude: 35000ft - Cruise Speed: 420kts - Descent Rate: 1500ft/min - Descent Speed: 250kts Options: - Use NATs: yes - Use PACOTS: yes - Use low airways: yes - Use high airways: yes

Route

LESU SLL LELL

ID Type Via Altitude Latitude Longitude Leg Dist Tot Dist Heading (true) Name
O LESU APT - 0 ft / 0 m 42.34115˚ 1.41065˚ - 0 nm - Seo de Urgel
SLL VOR - 0 ft / 0 m 41.51985˚ 2.10975˚ 58 nm 58 nm 147° / 148° SABADELL VOR-DME
O LELL APT - 0 ft / 0 m 41.52098˚ 2.10491˚ 0 nm 58 nm 287° / 287° Sabadell

Altitude Profile

Advertisement - Login to hide

LESU

Details ICAO LESU (LEU)
Name Seo de Urgel
Region Spain
Timezone Europe/Madrid (UTC+1.0)
Stats Elevation 2,625 ft / 800 m (AMSL)
Location 42.341155° 1.410651°
Runways 1
Magnetic Variation 0.626° E

METAR

Not found

TAF

TAF LESU 170200Z 1703/1803 VRB04KT 9999 FEW050 TX06/1713Z TNM06/1707Z

Decode

Departure Runways

ID Width Length Bearing (true) Bearing (mag) Surface Threshold Offset Overrun Length
03 98 ft / 30 m 4,396 ft / 1,340 m 30.50° 29.87° Asphalt 0 ft / 0 m 98 ft / 30 m
21 98 ft / 30 m 4,396 ft / 1,340 m 210.50° 209.87° Asphalt 0 ft / 0 m 102 ft / 31 m

LELL

Details ICAO LELL (QSA)
Name Sabadell
Region Spain
Timezone Europe/Madrid (UTC+1.0)
Stats Elevation 465 ft / 142 m (AMSL)
Location 41.520977° 2.104912°
Runways 1
Magnetic Variation 0.821° E

METAR

LELL 170430Z AUTO VRB02KT CAVOK 01/M04 Q1023

Decode

TAF

TAF LELL 170200Z 1703/1803 27007KT 9999 FEW030 TX13/1713Z TN01/1706Z

Decode

Destination Runways

ID Width Length Bearing (true) Bearing (mag) Surface Threshold Offset Overrun Length
13 98 ft / 30 m 2,956 ft / 901 m 127.50° 126.68° Asphalt 0 ft / 0 m 0 ft / 0 m
31 98 ft / 30 m 2,956 ft / 901 m 307.50° 306.68° Asphalt 0 ft / 0 m 0 ft / 0 m